Cookie information
Cookies are required to log in. Please review our privacy policy here.
Allow cookies

VATSIM Malta (unofficial)

Live activity

Online ATC
No ATC available at the moment.
 
Weather and Runway in use
METAR
LMML 031145Z 20010KT 9999 FEW011 18/15 Q1014 NOSIG
(Decode METAR)

IFR Runway in Use: 31
Tail wind: 3.4 kts
Crosswind: 9.4 kts

VFR Runway in Use: 23
Head wind: 8.7 kts
Crosswind: 5 kts

Runways in use are based on current local time, wind from VATSIM METAR and tailwind/crosswind component set in AIP Malta AD 2 LMML section 6 (Use of Runways), and might not correspond to the runway in use real life due to weather reports might be delayed or winds are shifting.
 
Departures
CallsignStatusDestination
PNN625PreparingLHBP
GEC4221EnrouteDTTA
WZZ7EMEnrouteLWSK
JFU1Y5EnrouteLECO
Arrivals
CallsignStatusDepartureETA
VY512EnrouteLIEE13:07z
RYR512EnrouteLICJ12:34z